RPLC/CRK METAR and TAF weather

Enter ICAO airport designator
Station Type Date Time Source
RPLC METAR 2019/02/23 23:00 UTC NOAA

RPLC 232300Z 27002KT 9999 FEW020 21/18 Q1015 NOSIG RMK A2997


Station Type Date Time Source
RPLC Decoded METAR 2019/02/23 23:00 UTC NOAA

Clarkfield Pampanga International Airport, Philippines (RPLC) 15-11N 120-33E
Feb 23, 2019 - 06:00 PM EST / 2019.02.23 2300 UTC
Wind: from the W (270 degrees) at 2 MPH (2 KT):0
Visibility: greater than 7 mile(s):0
Sky conditions: mostly clear
Temperature: 69 F (21 C)
Dew Point: 64 F (18 C)
Relative Humidity: 82%
Pressure (altimeter): 29.97 in. Hg (1015 hPa)
ob: RPLC 232300Z 27002KT 9999 FEW020 21/18 Q1015 NOSIG RMK A2997
cycle: 23

Station Type Date Time Source
RPLC TAF 2019/02/23 18:03 UTC NOAA

TAF RPLC 231700Z 2318/2424 27006KT 9999 FEW020 SCT100 BKN300 TX32/2406Z TN22/2322Z
TEMPO 2318/2324 29005KT FEW020 BKN300


Example: see airport list